Sandy Lake, Canada
Current Conditions -  °F | °C
As of 11:00 PM on Sunday 21 Dec 2014 (Local Time) from CZSJ Reporting Station
Light Snow Light Snow  
Wind Chill: 28°   Ceiling: 4300
Heat Index: 28°   Visibility: 5mi
Dew Point: 27°   Wind: 2mph
Humidity: 93%   Direction: NA
Pressure: 29.67"   Gusts: NA
Location:  53.03°N, 93.23°W
Report Text: CZSJ 220500Z AUTO VRB02KT 5SM -SN OVC043 M02/M03 A2967 RMK SLP064
Loading
Personal Weather Stations






























Interactive Weather Map New forecast layout! Learn more

10-Day Weather Forecast

Advertisements
Track Severe Weather on mobile